National Weather Service Raw Text Product

Displaying AFOS PIL: TAFFOD Received: 2018-03-08 05:25 UTC


086 
FTUS43 KDMX 080525
TAFFOD
TAF
KFOD 080525Z 0806/0906 31006KT P6SM FEW250
     FM090000 VRB03KT P6SM SCT200=